sensor_id;sensor_type;location;lat;lon;timestamp;P1;durP1;ratioP1;P2;durP2;ratioP2
66741;SDS011;53654;54.152;19.432;2023-12-29T00:01:17;6.60;;;4.50;;
66741;SDS011;53654;54.152;19.432;2023-12-29T00:03:46;6.10;;;4.70;;
66741;SDS011;53654;54.152;19.432;2023-12-29T00:06:14;6.20;;;5.10;;
66741;SDS011;53654;54.152;19.432;2023-12-29T00:08:42;6.80;;;4.80;;
66741;SDS011;53654;54.152;19.432;2023-12-29T00:11:19;6.20;;;4.90;;
66741;SDS011;53654;54.152;19.432;2023-12-29T00:13:48;5.90;;;4.70;;
66741;SDS011;53654;54.152;19.432;2023-12-29T00:16:16;5.20;;;4.70;;
66741;SDS011;53654;54.152;19.432;2023-12-29T00:18:44;6.20;;;4.80;;
66741;SDS011;53654;54.152;19.432;2023-12-29T00:21:13;5.30;;;4.50;;
66741;SDS011;53654;54.152;19.432;2023-12-29T00:23:44;6.10;;;4.80;;
66741;SDS011;53654;54.152;19.432;2023-12-29T00:26:12;5.80;;;4.60;;
66741;SDS011;53654;54.152;19.432;2023-12-29T00:28:40;4.90;;;4.40;;
66741;SDS011;53654;54.152;19.432;2023-12-29T00:31:08;5.20;;;4.70;;
66741;SDS011;53654;54.152;19.432;2023-12-29T00:33:37;5.40;;;4.40;;
66741;SDS011;53654;54.152;19.432;2023-12-29T00:36:05;5.30;;;4.60;;
66741;SDS011;53654;54.152;19.432;2023-12-29T00:38:34;5.30;;;4.50;;
66741;SDS011;53654;54.152;19.432;2023-12-29T00:41:02;5.20;;;4.50;;
66741;SDS011;53654;54.152;19.432;2023-12-29T00:43:32;5.00;;;4.50;;
66741;SDS011;53654;54.152;19.432;2023-12-29T00:46:01;5.10;;;4.60;;
66741;SDS011;53654;54.152;19.432;2023-12-29T00:48:38;5.60;;;4.40;;
66741;SDS011;53654;54.152;19.432;2023-12-29T00:51:08;5.90;;;4.30;;
66741;SDS011;53654;54.152;19.432;2023-12-29T00:53:36;5.70;;;4.10;;
66741;SDS011;53654;54.152;19.432;2023-12-29T00:56:11;5.20;;;4.30;;
66741;SDS011;53654;54.152;19.432;2023-12-29T00:58:41;5.00;;;4.30;;
66741;SDS011;53654;54.152;19.432;2023-12-29T01:01:09;4.80;;;4.20;;
66741;SDS011;53654;54.152;19.432;2023-12-29T01:03:39;5.90;;;4.70;;
66741;SDS011;53654;54.152;19.432;2023-12-29T01:06:08;5.50;;;5.00;;
66741;SDS011;53654;54.152;19.432;2023-12-29T01:08:36;5.70;;;4.30;;
66741;SDS011;53654;54.152;19.432;2023-12-29T01:11:04;5.00;;;4.40;;
66741;SDS011;53654;54.152;19.432;2023-12-29T01:13:32;4.90;;;4.40;;
66741;SDS011;53654;54.152;19.432;2023-12-29T01:16:00;5.10;;;4.60;;
66741;SDS011;53654;54.152;19.432;2023-12-29T01:18:29;6.50;;;4.60;;
66741;SDS011;53654;54.152;19.432;2023-12-29T01:20:57;5.40;;;4.60;;
66741;SDS011;53654;54.152;19.432;2023-12-29T01:23:25;5.40;;;4.50;;
66741;SDS011;53654;54.152;19.432;2023-12-29T01:25:53;6.30;;;4.80;;
66741;SDS011;53654;54.152;19.432;2023-12-29T01:28:22;5.70;;;4.60;;
66741;SDS011;53654;54.152;19.432;2023-12-29T01:30:50;5.60;;;4.60;;
66741;SDS011;53654;54.152;19.432;2023-12-29T01:33:18;5.30;;;4.50;;
66741;SDS011;53654;54.152;19.432;2023-12-29T01:35:50;5.60;;;4.40;;
66741;SDS011;53654;54.152;19.432;2023-12-29T01:38:18;5.40;;;4.40;;
66741;SDS011;53654;54.152;19.432;2023-12-29T01:40:47;6.60;;;4.50;;
66741;SDS011;53654;54.152;19.432;2023-12-29T01:43:15;4.90;;;4.40;;
66741;SDS011;53654;54.152;19.432;2023-12-29T01:45:43;6.00;;;4.50;;
66741;SDS011;53654;54.152;19.432;2023-12-29T01:48:24;5.40;;;4.40;;
66741;SDS011;53654;54.152;19.432;2023-12-29T01:50:53;6.00;;;4.60;;
66741;SDS011;53654;54.152;19.432;2023-12-29T01:53:22;4.90;;;4.40;;
66741;SDS011;53654;54.152;19.432;2023-12-29T01:56:05;5.70;;;4.60;;
66741;SDS011;53654;54.152;19.432;2023-12-29T01:58:35;4.60;;;4.20;;
66741;SDS011;53654;54.152;19.432;2023-12-29T02:01:05;4.80;;;4.20;;
66741;SDS011;53654;54.152;19.432;2023-12-29T02:03:35;4.80;;;4.20;;
66741;SDS011;53654;54.152;19.432;2023-12-29T02:06:04;5.90;;;4.50;;
66741;SDS011;53654;54.152;19.432;2023-12-29T02:08:34;5.20;;;4.20;;
66741;SDS011;53654;54.152;19.432;2023-12-29T02:11:02;5.40;;;4.30;;
66741;SDS011;53654;54.152;19.432;2023-12-29T02:13:32;4.40;;;3.90;;
66741;SDS011;53654;54.152;19.432;2023-12-29T02:16:02;5.50;;;4.10;;
66741;SDS011;53654;54.152;19.432;2023-12-29T02:18:37;4.80;;;4.30;;
66741;SDS011;53654;54.152;19.432;2023-12-29T02:21:06;4.80;;;4.40;;
66741;SDS011;53654;54.152;19.432;2023-12-29T02:23:34;4.90;;;4.30;;
66741;SDS011;53654;54.152;19.432;2023-12-29T02:26:06;4.80;;;4.30;;
66741;SDS011;53654;54.152;19.432;2023-12-29T02:28:39;4.80;;;4.30;;
66741;SDS011;53654;54.152;19.432;2023-12-29T02:31:16;5.10;;;4.60;;
66741;SDS011;53654;54.152;19.432;2023-12-29T02:33:48;4.50;;;4.10;;
66741;SDS011;53654;54.152;19.432;2023-12-29T02:36:19;4.90;;;4.40;;
66741;SDS011;53654;54.152;19.432;2023-12-29T02:38:50;5.80;;;4.80;;
66741;SDS011;53654;54.152;19.432;2023-12-29T02:41:18;4.70;;;4.30;;
66741;SDS011;53654;54.152;19.432;2023-12-29T02:43:46;5.60;;;4.30;;
66741;SDS011;53654;54.152;19.432;2023-12-29T02:46:15;5.10;;;4.60;;
66741;SDS011;53654;54.152;19.432;2023-12-29T02:48:43;5.60;;;4.30;;
66741;SDS011;53654;54.152;19.432;2023-12-29T02:51:12;5.10;;;4.30;;
66741;SDS011;53654;54.152;19.432;2023-12-29T02:53:40;6.50;;;4.50;;
66741;SDS011;53654;54.152;19.432;2023-12-29T02:56:09;4.90;;;4.30;;
66741;SDS011;53654;54.152;19.432;2023-12-29T02:58:37;4.80;;;4.40;;
66741;SDS011;53654;54.152;19.432;2023-12-29T03:01:05;5.30;;;4.80;;
66741;SDS011;53654;54.152;19.432;2023-12-29T03:03:34;5.00;;;4.50;;
66741;SDS011;53654;54.152;19.432;2023-12-29T03:06:03;5.20;;;4.70;;
66741;SDS011;53654;54.152;19.432;2023-12-29T03:08:31;5.20;;;4.70;;
66741;SDS011;53654;54.152;19.432;2023-12-29T03:11:00;6.70;;;5.10;;
66741;SDS011;53654;54.152;19.432;2023-12-29T03:13:28;5.50;;;4.90;;
66741;SDS011;53654;54.152;19.432;2023-12-29T03:15:57;5.70;;;4.70;;
66741;SDS011;53654;54.152;19.432;2023-12-29T03:18:25;5.00;;;4.50;;
66741;SDS011;53654;54.152;19.432;2023-12-29T03:20:54;6.20;;;4.80;;
66741;SDS011;53654;54.152;19.432;2023-12-29T03:23:22;5.60;;;4.60;;
66741;SDS011;53654;54.152;19.432;2023-12-29T03:25:51;5.80;;;4.70;;
66741;SDS011;53654;54.152;19.432;2023-12-29T03:28:19;5.40;;;4.50;;
66741;SDS011;53654;54.152;19.432;2023-12-29T03:30:47;6.20;;;4.60;;
66741;SDS011;53654;54.152;19.432;2023-12-29T03:33:16;5.00;;;4.30;;
66741;SDS011;53654;54.152;19.432;2023-12-29T03:35:44;5.10;;;4.50;;
66741;SDS011;53654;54.152;19.432;2023-12-29T03:38:13;4.70;;;4.30;;
66741;SDS011;53654;54.152;19.432;2023-12-29T03:40:42;5.10;;;4.40;;
66741;SDS011;53654;54.152;19.432;2023-12-29T03:43:10;5.50;;;4.50;;
66741;SDS011;53654;54.152;19.432;2023-12-29T03:45:39;5.30;;;4.20;;
66741;SDS011;53654;54.152;19.432;2023-12-29T03:48:07;5.60;;;4.50;;
66741;SDS011;53654;54.152;19.432;2023-12-29T03:50:37;5.20;;;4.50;;
66741;SDS011;53654;54.152;19.432;2023-12-29T03:53:06;5.50;;;4.40;;
66741;SDS011;53654;54.152;19.432;2023-12-29T03:55:34;4.90;;;4.40;;
66741;SDS011;53654;54.152;19.432;2023-12-29T03:58:02;4.80;;;4.30;;
66741;SDS011;53654;54.152;19.432;2023-12-29T04:00:30;6.00;;;4.40;;
66741;SDS011;53654;54.152;19.432;2023-12-29T04:02:59;5.00;;;4.40;;
66741;SDS011;53654;54.152;19.432;2023-12-29T04:05:27;4.70;;;4.30;;
66741;SDS011;53654;54.152;19.432;2023-12-29T04:07:56;5.90;;;4.30;;
66741;SDS011;53654;54.152;19.432;2023-12-29T04:10:24;5.90;;;4.60;;
66741;SDS011;53654;54.152;19.432;2023-12-29T04:12:53;4.80;;;4.10;;
66741;SDS011;53654;54.152;19.432;2023-12-29T04:15:21;5.10;;;4.30;;
66741;SDS011;53654;54.152;19.432;2023-12-29T04:17:49;5.10;;;4.40;;
66741;SDS011;53654;54.152;19.432;2023-12-29T04:20:17;4.90;;;4.30;;
66741;SDS011;53654;54.152;19.432;2023-12-29T04:22:46;6.10;;;4.30;;
66741;SDS011;53654;54.152;19.432;2023-12-29T04:25:14;5.10;;;4.40;;
66741;SDS011;53654;54.152;19.432;2023-12-29T04:27:42;6.20;;;4.40;;
66741;SDS011;53654;54.152;19.432;2023-12-29T04:30:10;5.60;;;4.50;;
66741;SDS011;53654;54.152;19.432;2023-12-29T04:32:39;5.00;;;4.40;;
66741;SDS011;53654;54.152;19.432;2023-12-29T04:35:07;5.60;;;4.30;;
66741;SDS011;53654;54.152;19.432;2023-12-29T04:37:38;5.50;;;4.20;;
66741;SDS011;53654;54.152;19.432;2023-12-29T04:40:06;5.50;;;4.20;;
66741;SDS011;53654;54.152;19.432;2023-12-29T04:42:35;5.70;;;4.10;;
66741;SDS011;53654;54.152;19.432;2023-12-29T04:45:04;5.90;;;4.30;;
66741;SDS011;53654;54.152;19.432;2023-12-29T04:47:33;5.50;;;4.30;;
66741;SDS011;53654;54.152;19.432;2023-12-29T04:50:01;4.80;;;4.30;;
66741;SDS011;53654;54.152;19.432;2023-12-29T04:52:30;4.80;;;4.00;;
66741;SDS011;53654;54.152;19.432;2023-12-29T04:54:58;5.50;;;4.40;;
66741;SDS011;53654;54.152;19.432;2023-12-29T04:57:26;5.00;;;4.40;;
66741;SDS011;53654;54.152;19.432;2023-12-29T04:59:54;6.00;;;4.60;;
66741;SDS011;53654;54.152;19.432;2023-12-29T05:02:22;5.70;;;4.50;;
66741;SDS011;53654;54.152;19.432;2023-12-29T05:04:51;5.50;;;4.30;;
66741;SDS011;53654;54.152;19.432;2023-12-29T05:07:19;4.90;;;4.30;;
66741;SDS011;53654;54.152;19.432;2023-12-29T05:09:47;5.10;;;4.30;;
66741;SDS011;53654;54.152;19.432;2023-12-29T05:12:15;5.50;;;4.10;;
66741;SDS011;53654;54.152;19.432;2023-12-29T05:14:43;6.20;;;4.10;;
66741;SDS011;53654;54.152;19.432;2023-12-29T05:17:12;4.40;;;4.00;;
66741;SDS011;53654;54.152;19.432;2023-12-29T05:19:40;4.60;;;4.10;;
66741;SDS011;53654;54.152;19.432;2023-12-29T05:22:08;5.20;;;4.20;;
66741;SDS011;53654;54.152;19.432;2023-12-29T05:24:37;4.70;;;4.00;;
66741;SDS011;53654;54.152;19.432;2023-12-29T05:27:05;4.70;;;4.00;;
66741;SDS011;53654;54.152;19.432;2023-12-29T05:29:33;4.50;;;3.90;;
66741;SDS011;53654;54.152;19.432;2023-12-29T05:32:02;4.30;;;3.90;;
66741;SDS011;53654;54.152;19.432;2023-12-29T05:34:30;4.90;;;4.20;;
66741;SDS011;53654;54.152;19.432;2023-12-29T05:36:59;4.70;;;4.00;;
66741;SDS011;53654;54.152;19.432;2023-12-29T05:39:27;5.30;;;4.30;;
66741;SDS011;53654;54.152;19.432;2023-12-29T05:41:55;5.40;;;3.90;;
66741;SDS011;53654;54.152;19.432;2023-12-29T05:44:23;5.20;;;4.30;;
66741;SDS011;53654;54.152;19.432;2023-12-29T05:46:51;4.40;;;4.00;;
66741;SDS011;53654;54.152;19.432;2023-12-29T05:49:23;4.90;;;4.10;;
66741;SDS011;53654;54.152;19.432;2023-12-29T05:51:52;4.50;;;3.80;;
66741;SDS011;53654;54.152;19.432;2023-12-29T05:54:20;4.30;;;3.70;;
66741;SDS011;53654;54.152;19.432;2023-12-29T05:56:48;4.80;;;4.20;;
66741;SDS011;53654;54.152;19.432;2023-12-29T05:59:16;4.70;;;4.00;;
66741;SDS011;53654;54.152;19.432;2023-12-29T06:01:45;4.50;;;3.80;;
66741;SDS011;53654;54.152;19.432;2023-12-29T06:04:13;4.40;;;3.90;;
66741;SDS011;53654;54.152;19.432;2023-12-29T06:06:42;4.50;;;4.10;;
66741;SDS011;53654;54.152;19.432;2023-12-29T06:09:10;5.20;;;4.00;;
66741;SDS011;53654;54.152;19.432;2023-12-29T06:11:38;4.60;;;3.90;;
66741;SDS011;53654;54.152;19.432;2023-12-29T06:14:07;4.70;;;3.90;;
66741;SDS011;53654;54.152;19.432;2023-12-29T06:16:35;4.50;;;4.00;;
66741;SDS011;53654;54.152;19.432;2023-12-29T06:19:03;4.60;;;3.80;;
66741;SDS011;53654;54.152;19.432;2023-12-29T06:21:31;4.50;;;3.70;;
66741;SDS011;53654;54.152;19.432;2023-12-29T06:24:00;4.90;;;4.30;;
66741;SDS011;53654;54.152;19.432;2023-12-29T06:26:28;4.60;;;3.90;;
66741;SDS011;53654;54.152;19.432;2023-12-29T06:28:56;5.70;;;4.00;;
66741;SDS011;53654;54.152;19.432;2023-12-29T06:31:24;4.50;;;4.10;;
66741;SDS011;53654;54.152;19.432;2023-12-29T06:33:52;4.30;;;3.80;;
66741;SDS011;53654;54.152;19.432;2023-12-29T06:36:21;4.60;;;4.00;;
66741;SDS011;53654;54.152;19.432;2023-12-29T06:38:49;4.90;;;4.10;;
66741;SDS011;53654;54.152;19.432;2023-12-29T06:41:18;4.50;;;3.80;;
66741;SDS011;53654;54.152;19.432;2023-12-29T06:43:46;4.50;;;3.90;;
66741;SDS011;53654;54.152;19.432;2023-12-29T06:46:15;4.80;;;3.70;;
66741;SDS011;53654;54.152;19.432;2023-12-29T06:48:43;4.50;;;3.50;;
66741;SDS011;53654;54.152;19.432;2023-12-29T06:51:15;4.40;;;3.70;;
66741;SDS011;53654;54.152;19.432;2023-12-29T06:53:45;4.60;;;3.80;;
66741;SDS011;53654;54.152;19.432;2023-12-29T06:56:15;5.40;;;4.60;;
66741;SDS011;53654;54.152;19.432;2023-12-29T06:58:45;5.80;;;4.70;;
66741;SDS011;53654;54.152;19.432;2023-12-29T07:01:14;5.30;;;4.00;;
66741;SDS011;53654;54.152;19.432;2023-12-29T07:03:44;4.90;;;4.20;;
66741;SDS011;53654;54.152;19.432;2023-12-29T07:06:12;5.10;;;4.00;;
66741;SDS011;53654;54.152;19.432;2023-12-29T07:08:41;5.20;;;4.70;;
66741;SDS011;53654;54.152;19.432;2023-12-29T07:11:10;4.50;;;4.10;;
66741;SDS011;53654;54.152;19.432;2023-12-29T07:13:39;4.90;;;4.10;;
66741;SDS011;53654;54.152;19.432;2023-12-29T07:16:07;4.40;;;3.80;;
66741;SDS011;53654;54.152;19.432;2023-12-29T07:18:36;5.20;;;4.10;;
66741;SDS011;53654;54.152;19.432;2023-12-29T07:21:04;5.40;;;3.80;;
66741;SDS011;53654;54.152;19.432;2023-12-29T07:23:32;4.00;;;3.70;;
66741;SDS011;53654;54.152;19.432;2023-12-29T07:26:00;4.90;;;3.90;;
66741;SDS011;53654;54.152;19.432;2023-12-29T07:28:28;5.00;;;4.10;;
66741;SDS011;53654;54.152;19.432;2023-12-29T07:30:56;5.10;;;4.60;;
66741;SDS011;53654;54.152;19.432;2023-12-29T07:33:25;5.00;;;4.40;;
66741;SDS011;53654;54.152;19.432;2023-12-29T07:35:53;5.50;;;4.80;;
66741;SDS011;53654;54.152;19.432;2023-12-29T07:38:22;12.10;;;10.00;;
66741;SDS011;53654;54.152;19.432;2023-12-29T07:40:50;10.50;;;8.60;;
66741;SDS011;53654;54.152;19.432;2023-12-29T07:43:18;6.80;;;5.40;;
66741;SDS011;53654;54.152;19.432;2023-12-29T07:45:47;5.20;;;4.60;;
66741;SDS011;53654;54.152;19.432;2023-12-29T07:48:15;5.80;;;4.30;;
66741;SDS011;53654;54.152;19.432;2023-12-29T07:50:43;4.90;;;4.40;;
66741;SDS011;53654;54.152;19.432;2023-12-29T07:53:11;4.70;;;4.20;;
66741;SDS011;53654;54.152;19.432;2023-12-29T07:55:39;4.90;;;4.30;;
66741;SDS011;53654;54.152;19.432;2023-12-29T07:58:08;5.00;;;4.40;;
66741;SDS011;53654;54.152;19.432;2023-12-29T08:00:38;4.80;;;4.10;;
66741;SDS011;53654;54.152;19.432;2023-12-29T08:03:06;7.60;;;5.80;;
66741;SDS011;53654;54.152;19.432;2023-12-29T08:05:35;10.90;;;9.80;;
66741;SDS011;53654;54.152;19.432;2023-12-29T08:08:03;9.60;;;8.70;;
66741;SDS011;53654;54.152;19.432;2023-12-29T08:10:32;8.00;;;6.50;;
66741;SDS011;53654;54.152;19.432;2023-12-29T08:13:00;6.60;;;5.60;;
66741;SDS011;53654;54.152;19.432;2023-12-29T08:15:28;7.60;;;5.80;;
66741;SDS011;53654;54.152;19.432;2023-12-29T08:17:56;6.20;;;5.00;;
66741;SDS011;53654;54.152;19.432;2023-12-29T08:20:25;5.50;;;5.00;;
66741;SDS011;53654;54.152;19.432;2023-12-29T08:22:54;4.70;;;4.20;;
66741;SDS011;53654;54.152;19.432;2023-12-29T08:25:22;5.00;;;4.30;;
66741;SDS011;53654;54.152;19.432;2023-12-29T08:27:50;5.10;;;4.40;;
66741;SDS011;53654;54.152;19.432;2023-12-29T08:30:18;5.00;;;4.50;;
66741;SDS011;53654;54.152;19.432;2023-12-29T08:32:47;5.50;;;4.80;;
66741;SDS011;53654;54.152;19.432;2023-12-29T08:35:15;5.40;;;4.50;;
66741;SDS011;53654;54.152;19.432;2023-12-29T08:37:43;5.60;;;4.40;;
66741;SDS011;53654;54.152;19.432;2023-12-29T08:40:11;5.00;;;4.60;;
66741;SDS011;53654;54.152;19.432;2023-12-29T08:42:40;4.70;;;4.20;;
66741;SDS011;53654;54.152;19.432;2023-12-29T08:45:08;4.30;;;3.90;;
66741;SDS011;53654;54.152;19.432;2023-12-29T08:47:36;5.20;;;4.00;;
66741;SDS011;53654;54.152;19.432;2023-12-29T08:50:05;6.40;;;4.20;;
66741;SDS011;53654;54.152;19.432;2023-12-29T08:52:34;4.30;;;3.80;;
66741;SDS011;53654;54.152;19.432;2023-12-29T08:55:02;4.80;;;4.00;;
66741;SDS011;53654;54.152;19.432;2023-12-29T08:57:31;4.90;;;3.80;;
66741;SDS011;53654;54.152;19.432;2023-12-29T08:59:59;4.60;;;4.10;;
66741;SDS011;53654;54.152;19.432;2023-12-29T09:02:27;5.00;;;4.50;;
66741;SDS011;53654;54.152;19.432;2023-12-29T09:04:56;4.90;;;4.10;;
66741;SDS011;53654;54.152;19.432;2023-12-29T09:07:24;4.90;;;4.30;;
66741;SDS011;53654;54.152;19.432;2023-12-29T09:09:52;5.40;;;4.40;;
66741;SDS011;53654;54.152;19.432;2023-12-29T09:12:20;4.50;;;4.00;;
66741;SDS011;53654;54.152;19.432;2023-12-29T09:14:49;4.50;;;4.00;;
66741;SDS011;53654;54.152;19.432;2023-12-29T09:17:17;5.20;;;4.60;;
66741;SDS011;53654;54.152;19.432;2023-12-29T09:19:45;4.50;;;4.10;;
66741;SDS011;53654;54.152;19.432;2023-12-29T09:22:23;6.00;;;3.80;;
66741;SDS011;53654;54.152;19.432;2023-12-29T09:24:51;4.10;;;3.70;;
66741;SDS011;53654;54.152;19.432;2023-12-29T09:27:20;4.20;;;3.70;;
66741;SDS011;53654;54.152;19.432;2023-12-29T09:29:48;4.30;;;3.90;;
66741;SDS011;53654;54.152;19.432;2023-12-29T09:32:17;5.10;;;4.10;;
66741;SDS011;53654;54.152;19.432;2023-12-29T09:34:46;4.90;;;4.40;;
66741;SDS011;53654;54.152;19.432;2023-12-29T09:37:14;4.40;;;4.00;;
66741;SDS011;53654;54.152;19.432;2023-12-29T09:39:42;4.40;;;3.90;;
66741;SDS011;53654;54.152;19.432;2023-12-29T09:42:12;4.60;;;4.00;;
66741;SDS011;53654;54.152;19.432;2023-12-29T09:44:50;6.00;;;3.90;;
66741;SDS011;53654;54.152;19.432;2023-12-29T09:47:20;5.10;;;4.00;;
66741;SDS011;53654;54.152;19.432;2023-12-29T09:49:53;4.40;;;3.90;;
66741;SDS011;53654;54.152;19.432;2023-12-29T09:52:22;4.00;;;3.50;;
66741;SDS011;53654;54.152;19.432;2023-12-29T09:54:51;4.70;;;4.30;;
66741;SDS011;53654;54.152;19.432;2023-12-29T09:57:21;4.70;;;4.20;;
66741;SDS011;53654;54.152;19.432;2023-12-29T09:59:49;4.60;;;4.00;;
66741;SDS011;53654;54.152;19.432;2023-12-29T10:02:20;4.00;;;3.60;;
66741;SDS011;53654;54.152;19.432;2023-12-29T10:04:51;4.80;;;4.00;;
66741;SDS011;53654;54.152;19.432;2023-12-29T10:07:23;4.70;;;4.20;;
66741;SDS011;53654;54.152;19.432;2023-12-29T10:09:55;4.30;;;3.90;;
66741;SDS011;53654;54.152;19.432;2023-12-29T10:12:25;5.20;;;3.90;;
66741;SDS011;53654;54.152;19.432;2023-12-29T10:20:30;4.30;;;3.90;;
66741;SDS011;53654;54.152;19.432;2023-12-29T10:23:11;4.00;;;3.60;;
66741;SDS011;53654;54.152;19.432;2023-12-29T10:25:44;4.20;;;3.80;;
66741;SDS011;53654;54.152;19.432;2023-12-29T10:28:14;5.00;;;3.70;;
66741;SDS011;53654;54.152;19.432;2023-12-29T10:30:46;3.90;;;3.50;;
66741;SDS011;53654;54.152;19.432;2023-12-29T10:33:21;4.20;;;3.80;;
66741;SDS011;53654;54.152;19.432;2023-12-29T10:36:00;5.10;;;3.70;;
66741;SDS011;53654;54.152;19.432;2023-12-29T10:38:38;4.30;;;3.90;;
66741;SDS011;53654;54.152;19.432;2023-12-29T10:41:18;4.50;;;4.10;;
66741;SDS011;53654;54.152;19.432;2023-12-29T10:43:47;5.30;;;3.80;;
66741;SDS011;53654;54.152;19.432;2023-12-29T10:46:19;4.10;;;3.70;;
66741;SDS011;53654;54.152;19.432;2023-12-29T10:48:49;4.50;;;3.90;;
66741;SDS011;53654;54.152;19.432;2023-12-29T10:51:17;4.60;;;3.80;;
66741;SDS011;53654;54.152;19.432;2023-12-29T10:53:55;4.80;;;3.70;;
66741;SDS011;53654;54.152;19.432;2023-12-29T10:56:28;3.80;;;3.40;;
66741;SDS011;53654;54.152;19.432;2023-12-29T10:58:56;4.00;;;3.20;;
66741;SDS011;53654;54.152;19.432;2023-12-29T11:01:32;4.20;;;3.30;;
66741;SDS011;53654;54.152;19.432;2023-12-29T11:04:05;4.30;;;3.20;;
66741;SDS011;53654;54.152;19.432;2023-12-29T11:06:41;3.30;;;3.00;;
66741;SDS011;53654;54.152;19.432;2023-12-29T11:09:12;3.40;;;3.10;;
66741;SDS011;53654;54.152;19.432;2023-12-29T11:11:41;3.30;;;3.00;;
66741;SDS011;53654;54.152;19.432;2023-12-29T11:14:11;3.90;;;2.90;;
66741;SDS011;53654;54.152;19.432;2023-12-29T11:16:40;3.70;;;3.10;;
66741;SDS011;53654;54.152;19.432;2023-12-29T11:19:10;4.30;;;3.20;;
66741;SDS011;53654;54.152;19.432;2023-12-29T11:21:40;4.20;;;3.70;;
66741;SDS011;53654;54.152;19.432;2023-12-29T11:24:10;3.90;;;3.40;;
66741;SDS011;53654;54.152;19.432;2023-12-29T11:26:42;3.80;;;3.10;;
66741;SDS011;53654;54.152;19.432;2023-12-29T11:29:12;4.00;;;3.10;;
66741;SDS011;53654;54.152;19.432;2023-12-29T11:31:40;4.00;;;3.10;;
66741;SDS011;53654;54.152;19.432;2023-12-29T11:34:23;3.50;;;3.20;;
66741;SDS011;53654;54.152;19.432;2023-12-29T11:37:04;4.10;;;3.70;;
66741;SDS011;53654;54.152;19.432;2023-12-29T11:39:59;3.90;;;3.10;;
66741;SDS011;53654;54.152;19.432;2023-12-29T11:42:40;3.30;;;3.00;;
66741;SDS011;53654;54.152;19.432;2023-12-29T11:45:28;3.70;;;3.10;;
66741;SDS011;53654;54.152;19.432;2023-12-29T11:48:02;4.40;;;3.40;;
66741;SDS011;53654;54.152;19.432;2023-12-29T11:50:32;3.40;;;3.10;;
66741;SDS011;53654;54.152;19.432;2023-12-29T11:53:06;3.40;;;3.00;;
66741;SDS011;53654;54.152;19.432;2023-12-29T11:55:36;3.40;;;3.00;;
66741;SDS011;53654;54.152;19.432;2023-12-29T11:58:25;4.30;;;3.20;;
66741;SDS011;53654;54.152;19.432;2023-12-29T12:00:57;3.50;;;3.10;;
66741;SDS011;53654;54.152;19.432;2023-12-29T12:03:26;5.50;;;4.40;;
66741;SDS011;53654;54.152;19.432;2023-12-29T12:05:56;4.60;;;4.20;;
66741;SDS011;53654;54.152;19.432;2023-12-29T12:08:34;3.90;;;3.10;;
66741;SDS011;53654;54.152;19.432;2023-12-29T12:13:57;3.90;;;2.70;;
66741;SDS011;53654;54.152;19.432;2023-12-29T12:19:13;3.30;;;2.60;;
66741;SDS011;53654;54.152;19.432;2023-12-29T12:21:42;3.10;;;2.80;;
66741;SDS011;53654;54.152;19.432;2023-12-29T12:24:18;3.50;;;2.80;;
66741;SDS011;53654;54.152;19.432;2023-12-29T12:26:47;3.30;;;2.40;;
66741;SDS011;53654;54.152;19.432;2023-12-29T12:29:17;2.80;;;2.10;;
66741;SDS011;53654;54.152;19.432;2023-12-29T12:31:54;2.20;;;1.90;;
66741;SDS011;53654;54.152;19.432;2023-12-29T12:34:25;3.00;;;2.20;;
66741;SDS011;53654;54.152;19.432;2023-12-29T12:36:54;3.20;;;2.40;;
66741;SDS011;53654;54.152;19.432;2023-12-29T12:39:40;3.80;;;2.40;;
66741;SDS011;53654;54.152;19.432;2023-12-29T12:42:08;4.70;;;3.40;;
66741;SDS011;53654;54.152;19.432;2023-12-29T12:44:40;5.40;;;2.50;;
66741;SDS011;53654;54.152;19.432;2023-12-29T12:47:14;3.20;;;2.10;;
66741;SDS011;53654;54.152;19.432;2023-12-29T12:49:46;3.70;;;2.40;;
66741;SDS011;53654;54.152;19.432;2023-12-29T12:52:15;3.40;;;2.30;;
66741;SDS011;53654;54.152;19.432;2023-12-29T12:54:43;3.60;;;2.40;;
66741;SDS011;53654;54.152;19.432;2023-12-29T12:57:12;4.00;;;2.60;;
66741;SDS011;53654;54.152;19.432;2023-12-29T12:59:41;4.50;;;2.70;;
66741;SDS011;53654;54.152;19.432;2023-12-29T13:02:09;3.80;;;2.40;;
66741;SDS011;53654;54.152;19.432;2023-12-29T13:04:40;3.90;;;2.60;;
66741;SDS011;53654;54.152;19.432;2023-12-29T13:07:10;3.20;;;2.40;;
66741;SDS011;53654;54.152;19.432;2023-12-29T13:09:38;3.20;;;2.30;;
66741;SDS011;53654;54.152;19.432;2023-12-29T13:12:13;4.30;;;2.30;;
66741;SDS011;53654;54.152;19.432;2023-12-29T13:14:43;2.20;;;2.00;;
66741;SDS011;53654;54.152;19.432;2023-12-29T13:17:16;3.00;;;2.10;;
66741;SDS011;53654;54.152;19.432;2023-12-29T13:19:45;2.50;;;2.10;;
66741;SDS011;53654;54.152;19.432;2023-12-29T13:22:13;2.00;;;1.80;;
66741;SDS011;53654;54.152;19.432;2023-12-29T13:24:45;2.40;;;1.90;;
66741;SDS011;53654;54.152;19.432;2023-12-29T13:27:14;3.20;;;2.30;;
66741;SDS011;53654;54.152;19.432;2023-12-29T13:29:43;2.90;;;2.10;;
66741;SDS011;53654;54.152;19.432;2023-12-29T13:34:56;3.60;;;2.70;;
66741;SDS011;53654;54.152;19.432;2023-12-29T13:37:46;3.10;;;2.60;;
66741;SDS011;53654;54.152;19.432;2023-12-29T13:40:34;3.50;;;2.50;;
66741;SDS011;53654;54.152;19.432;2023-12-29T13:43:08;4.30;;;2.70;;
66741;SDS011;53654;54.152;19.432;2023-12-29T13:45:39;2.90;;;2.60;;
66741;SDS011;53654;54.152;19.432;2023-12-29T13:48:10;2.90;;;2.00;;
66741;SDS011;53654;54.152;19.432;2023-12-29T13:50:47;2.00;;;1.70;;
66741;SDS011;53654;54.152;19.432;2023-12-29T13:53:17;2.20;;;2.00;;
66741;SDS011;53654;54.152;19.432;2023-12-29T13:55:46;2.20;;;2.00;;
66741;SDS011;53654;54.152;19.432;2023-12-29T13:58:15;2.40;;;2.00;;
66741;SDS011;53654;54.152;19.432;2023-12-29T14:00:45;2.30;;;2.10;;
66741;SDS011;53654;54.152;19.432;2023-12-29T14:03:31;2.80;;;2.30;;
66741;SDS011;53654;54.152;19.432;2023-12-29T14:06:07;2.10;;;1.90;;
66741;SDS011;53654;54.152;19.432;2023-12-29T14:08:39;3.00;;;2.30;;
66741;SDS011;53654;54.152;19.432;2023-12-29T14:11:12;2.80;;;2.20;;
66741;SDS011;53654;54.152;19.432;2023-12-29T14:13:41;2.90;;;2.60;;
66741;SDS011;53654;54.152;19.432;2023-12-29T14:16:13;2.50;;;2.30;;
66741;SDS011;53654;54.152;19.432;2023-12-29T14:21:26;2.70;;;2.30;;
66741;SDS011;53654;54.152;19.432;2023-12-29T14:23:59;3.90;;;2.70;;
66741;SDS011;53654;54.152;19.432;2023-12-29T14:26:33;4.00;;;2.90;;
66741;SDS011;53654;54.152;19.432;2023-12-29T14:29:02;3.70;;;3.30;;
66741;SDS011;53654;54.152;19.432;2023-12-29T14:31:43;3.30;;;2.90;;
66741;SDS011;53654;54.152;19.432;2023-12-29T14:34:12;5.30;;;3.50;;
66741;SDS011;53654;54.152;19.432;2023-12-29T14:36:42;5.80;;;4.00;;
66741;SDS011;53654;54.152;19.432;2023-12-29T14:39:11;4.40;;;4.00;;
66741;SDS011;53654;54.152;19.432;2023-12-29T14:41:39;4.90;;;3.90;;
66741;SDS011;53654;54.152;19.432;2023-12-29T14:44:07;4.30;;;3.90;;
66741;SDS011;53654;54.152;19.432;2023-12-29T14:46:36;4.20;;;3.80;;
66741;SDS011;53654;54.152;19.432;2023-12-29T14:49:05;4.30;;;3.70;;
66741;SDS011;53654;54.152;19.432;2023-12-29T14:51:33;4.30;;;3.30;;
66741;SDS011;53654;54.152;19.432;2023-12-29T14:54:02;3.90;;;3.10;;
66741;SDS011;53654;54.152;19.432;2023-12-29T14:56:31;3.10;;;2.80;;
66741;SDS011;53654;54.152;19.432;2023-12-29T14:58:59;4.00;;;3.40;;
66741;SDS011;53654;54.152;19.432;2023-12-29T15:01:29;4.00;;;3.10;;
66741;SDS011;53654;54.152;19.432;2023-12-29T15:03:57;3.50;;;3.00;;
66741;SDS011;53654;54.152;19.432;2023-12-29T15:06:25;3.90;;;2.80;;